createdAt,value
2023-04-20T00:02:26.943Z,4.94
2023-04-20T00:04:55.717Z,4.89
2023-04-20T00:07:27.355Z,4.86
2023-04-20T00:09:55.970Z,4.82
2023-04-20T00:12:24.590Z,4.87
2023-04-20T00:14:53.377Z,4.87
2023-04-20T00:17:22.498Z,4.80
2023-04-20T00:19:51.117Z,4.75
2023-04-20T00:22:20.812Z,4.72
2023-04-20T00:24:50.798Z,4.71
2023-04-20T00:27:19.575Z,4.75
2023-04-20T00:29:48.204Z,4.69
2023-04-20T00:32:16.803Z,4.62
2023-04-20T00:34:45.442Z,4.60
2023-04-20T00:37:14.051Z,4.60
2023-04-20T00:39:42.604Z,4.55
2023-04-20T00:42:12.534Z,4.54
2023-04-20T00:44:41.125Z,4.50
2023-04-20T00:47:09.750Z,4.43
2023-04-20T00:49:38.572Z,4.47
2023-04-20T00:52:07.389Z,4.46
2023-04-20T00:54:36.967Z,4.41
2023-04-20T00:57:05.799Z,4.43
2023-04-20T00:59:35.754Z,4.36
2023-04-20T01:02:04.541Z,4.26
2023-04-20T01:04:34.870Z,4.29
2023-04-20T01:07:03.802Z,4.20
2023-04-20T01:09:32.441Z,4.15
2023-04-20T01:12:01.716Z,4.18
2023-04-20T01:14:30.440Z,4.15
2023-04-20T01:17:00.415Z,4.12
2023-04-20T01:19:29.040Z,4.06
2023-04-20T01:21:57.595Z,4.02
2023-04-20T01:24:27.633Z,4.02
2023-04-20T01:26:56.351Z,4.05
2023-04-20T01:29:24.927Z,4.02
2023-04-20T01:31:53.733Z,4.02
2023-04-20T01:34:22.511Z,3.97
2023-04-20T01:36:51.167Z,3.96
2023-04-20T01:39:20.284Z,3.95
2023-04-20T01:41:50.710Z,3.83
2023-04-20T01:44:19.358Z,3.79
2023-04-20T01:46:48.004Z,3.74
2023-04-20T01:49:16.967Z,3.68
2023-04-20T01:51:45.761Z,3.67
2023-04-20T01:54:14.303Z,3.62
2023-04-20T01:56:42.855Z,3.57
2023-04-20T01:59:12.786Z,3.57
2023-04-20T02:01:41.321Z,3.52
2023-04-20T02:04:10.217Z,3.45
2023-04-20T02:06:38.803Z,3.53
2023-04-20T02:09:09.113Z,3.49
2023-04-20T02:11:37.738Z,3.45
2023-04-20T02:14:06.389Z,3.40
2023-04-20T02:16:36.618Z,3.37
2023-04-20T02:19:05.289Z,3.43
2023-04-20T02:21:33.897Z,3.38
2023-04-20T02:24:02.558Z,3.37
2023-04-20T02:26:31.126Z,3.34
2023-04-20T02:28:59.743Z,3.21
2023-04-20T02:31:28.488Z,3.28
2023-04-20T02:33:58.646Z,3.24
2023-04-20T02:36:27.263Z,3.26
2023-04-20T02:38:55.926Z,3.07
2023-04-20T02:41:24.667Z,2.94
2023-04-20T02:43:53.245Z,2.95
2023-04-20T02:46:21.880Z,2.91
2023-04-20T02:48:50.566Z,2.88
2023-04-20T02:51:21.528Z,2.84
2023-04-20T02:53:50.110Z,2.77
2023-04-20T02:56:18.975Z,2.84
2023-04-20T02:58:48.607Z,2.82
2023-04-20T03:01:17.226Z,2.78
2023-04-20T03:03:46.224Z,2.81
2023-04-20T03:06:15.081Z,2.80
2023-04-20T03:08:45.022Z,2.71
2023-04-20T03:11:13.777Z,2.73
2023-04-20T03:13:42.555Z,2.78
2023-04-20T03:16:11.663Z,2.81
2023-04-20T03:18:41.041Z,2.71
2023-04-20T03:21:10.113Z,2.70
2023-04-20T03:23:38.704Z,2.72
2023-04-20T03:26:08.704Z,2.72
2023-04-20T03:28:37.283Z,2.71
2023-04-20T03:31:06.627Z,2.65
2023-04-20T03:33:35.267Z,2.57
2023-04-20T03:36:05.763Z,2.52
2023-04-20T03:38:34.398Z,2.41
2023-04-20T03:41:02.966Z,2.41
2023-04-20T03:43:32.906Z,2.41
2023-04-20T03:46:01.615Z,2.34
2023-04-20T03:48:30.199Z,2.43
2023-04-20T03:50:58.921Z,2.44
2023-04-20T03:53:29.007Z,2.44
2023-04-20T03:55:57.651Z,2.43
2023-04-20T03:58:26.458Z,2.48
2023-04-20T04:01:02.299Z,2.47
2023-04-20T04:03:31.218Z,2.48
2023-04-20T04:05:59.923Z,2.50
2023-04-20T04:08:28.559Z,2.48
2023-04-20T04:10:57.164Z,2.53
2023-04-20T04:13:25.907Z,2.50
2023-04-20T04:15:54.599Z,2.45
2023-04-20T04:18:24.558Z,2.47
2023-04-20T04:20:53.164Z,2.46
2023-04-20T04:23:21.802Z,2.51
2023-04-20T04:25:51.205Z,2.48
2023-04-20T04:28:19.850Z,2.48
2023-04-20T04:30:48.436Z,2.51
2023-04-20T04:33:18.994Z,2.45
2023-04-20T04:35:49.461Z,2.50
2023-04-20T04:38:18.165Z,2.46
2023-04-20T04:40:46.771Z,2.47
2023-04-20T04:43:16.027Z,2.53
2023-04-20T04:45:45.644Z,2.46
2023-04-20T04:48:14.559Z,2.44
2023-04-20T04:50:43.228Z,2.44
2023-04-20T04:53:13.235Z,2.32
2023-04-20T04:55:41.846Z,2.32
2023-04-20T04:58:10.719Z,2.46
2023-04-20T05:00:40.162Z,2.32
2023-04-20T05:03:08.877Z,2.30
2023-04-20T05:05:38.059Z,2.28
2023-04-20T05:08:06.796Z,2.32
2023-04-20T05:10:36.808Z,2.40
2023-04-20T05:13:05.799Z,2.48
2023-04-20T05:15:34.567Z,2.54
2023-04-20T05:18:03.238Z,2.63
2023-04-20T05:20:31.852Z,2.55
2023-04-20T05:23:00.495Z,2.57
2023-04-20T05:25:29.148Z,2.57
2023-04-20T05:27:59.144Z,2.55
2023-04-20T05:30:27.854Z,2.51
2023-04-20T05:32:56.540Z,2.54
2023-04-20T05:35:25.402Z,2.58
2023-04-20T05:37:53.985Z,2.58
2023-04-20T05:40:22.662Z,2.63
2023-04-20T05:42:51.725Z,2.64
2023-04-20T05:45:21.693Z,2.69
2023-04-20T05:47:54.928Z,2.72
2023-04-20T05:50:24.598Z,2.83
2023-04-20T05:52:54.131Z,2.90
2023-04-20T05:55:23.302Z,2.90
2023-04-20T05:57:52.414Z,2.99
2023-04-20T06:00:25.734Z,3.01
2023-04-20T06:02:55.570Z,3.01
2023-04-20T06:05:24.441Z,3.09
2023-04-20T06:07:53.208Z,3.21
2023-04-20T06:10:22.228Z,3.34
2023-04-20T06:12:50.992Z,3.53
2023-04-20T06:15:19.823Z,3.62
2023-04-20T06:17:49.802Z,3.67
2023-04-20T06:20:19.895Z,3.64
2023-04-20T06:22:49.792Z,3.72
2023-04-20T06:25:18.791Z,3.73
2023-04-20T06:27:47.603Z,3.73
2023-04-20T06:30:16.404Z,3.76
2023-04-20T06:32:45.132Z,3.73
2023-04-20T06:35:15.511Z,3.86
2023-04-20T06:37:44.142Z,3.98
2023-04-20T06:40:14.949Z,4.08
2023-04-20T06:42:44.698Z,4.15
2023-04-20T06:45:13.321Z,4.29
2023-04-20T06:47:42.532Z,4.37
2023-04-20T06:50:11.678Z,4.38
2023-04-20T06:52:42.266Z,4.43
2023-04-20T06:55:11.124Z,4.55
2023-04-20T06:57:39.748Z,4.65
2023-04-20T07:00:09.995Z,4.84
2023-04-20T07:02:46.097Z,4.83
2023-04-20T07:05:14.992Z,4.83
2023-04-20T07:07:45.386Z,4.86
2023-04-20T07:10:15.245Z,5.07
2023-04-20T07:12:44.440Z,5.22
2023-04-20T07:15:13.637Z,5.41
2023-04-20T07:17:42.312Z,5.64
2023-04-20T07:20:11.402Z,5.80
2023-04-20T07:22:40.296Z,5.93
2023-04-20T07:25:11.924Z,5.98
2023-04-20T07:27:41.931Z,5.93
2023-04-20T07:30:11.456Z,6.02
2023-04-20T07:32:41.562Z,6.07
2023-04-20T07:35:11.162Z,6.14
2023-04-20T07:37:40.575Z,6.30
2023-04-20T07:40:11.792Z,6.27
2023-04-20T07:42:40.472Z,6.28
2023-04-20T07:45:11.076Z,6.36
2023-04-20T07:47:40.462Z,6.21
2023-04-20T07:50:09.683Z,6.16
2023-04-20T07:52:38.426Z,6.15
2023-04-20T07:55:11.510Z,6.21
2023-04-20T07:57:42.540Z,6.21
2023-04-20T08:00:13.373Z,6.15
2023-04-20T08:02:42.302Z,6.14
2023-04-20T08:05:11.459Z,6.21
2023-04-20T08:07:40.721Z,6.21
2023-04-20T08:10:10.560Z,6.25
2023-04-20T08:12:41.193Z,6.22
2023-04-20T08:15:11.277Z,6.24
2023-04-20T08:17:39.963Z,6.23
2023-04-20T08:20:10.588Z,6.16
2023-04-20T08:22:39.777Z,6.22
2023-04-20T08:25:08.996Z,6.24
2023-04-20T08:27:37.731Z,6.22
2023-04-20T08:30:09.160Z,6.27
2023-04-20T08:32:37.830Z,6.28
2023-04-20T08:35:07.452Z,6.33
2023-04-20T08:37:37.510Z,6.33
2023-04-20T08:40:07.223Z,6.42
2023-04-20T08:42:35.858Z,6.38
2023-04-20T08:45:04.791Z,6.37
2023-04-20T08:47:35.559Z,6.35
2023-04-20T08:50:05.341Z,6.42
2023-04-20T08:52:35.529Z,6.45
2023-04-20T08:55:04.504Z,6.39
2023-04-20T08:57:33.225Z,6.34
2023-04-20T09:00:07.803Z,6.42
2023-04-20T09:02:38.203Z,6.44
2023-04-20T09:05:08.740Z,6.46
2023-04-20T09:07:37.462Z,6.52
2023-04-20T09:10:07.080Z,6.52
2023-04-20T09:12:42.452Z,6.51
2023-04-20T09:15:11.721Z,6.53
2023-04-20T09:17:41.935Z,6.55
2023-04-20T09:20:11.767Z,6.61
2023-04-20T09:22:40.512Z,6.57
2023-04-20T09:25:15.800Z,6.65
2023-04-20T09:27:44.427Z,6.70
2023-04-20T09:30:13.805Z,6.70
2023-04-20T09:32:43.859Z,6.53
2023-04-20T09:35:12.491Z,6.51
2023-04-20T09:37:48.861Z,6.60
2023-04-20T09:40:17.615Z,6.68
2023-04-20T09:42:46.872Z,6.72
2023-04-20T09:45:16.676Z,6.76
2023-04-20T09:47:47.953Z,6.80
2023-04-20T09:50:26.739Z,6.79
2023-04-20T09:53:01.374Z,6.88
2023-04-20T09:55:31.934Z,6.83
2023-04-20T09:58:03.412Z,6.85
2023-04-20T10:00:32.264Z,6.85
2023-04-20T10:03:02.530Z,6.95
2023-04-20T10:05:35.680Z,6.96
2023-04-20T10:08:04.806Z,7.00
2023-04-20T10:10:44.732Z,6.90
2023-04-20T10:13:13.578Z,6.99
2023-04-20T10:15:43.357Z,6.88
2023-04-20T10:18:22.769Z,6.95
2023-04-20T10:20:51.580Z,6.96
2023-04-20T10:23:20.391Z,6.90
2023-04-20T10:25:59.051Z,6.95
2023-04-20T10:28:39.805Z,6.97
2023-04-20T10:31:12.839Z,6.92
2023-04-20T10:33:53.460Z,7.00
2023-04-20T10:36:29.929Z,7.03
2023-04-20T10:38:58.963Z,7.05
2023-04-20T10:41:27.958Z,7.08
2023-04-20T10:43:56.638Z,7.05
2023-04-20T10:46:26.209Z,7.06
2023-04-20T10:48:57.569Z,7.01
2023-04-20T10:51:26.492Z,7.02
2023-04-20T10:54:02.432Z,7.03
2023-04-20T10:56:37.953Z,7.05
2023-04-20T10:59:10.028Z,7.00
2023-04-20T11:01:38.897Z,7.07
2023-04-20T11:04:09.565Z,7.18
2023-04-20T11:06:39.445Z,7.12
2023-04-20T11:09:20.132Z,7.23
2023-04-20T11:12:00.144Z,7.25
2023-04-20T11:14:29.184Z,7.21
2023-04-20T11:16:57.907Z,7.26
2023-04-20T11:19:29.304Z,7.48
2023-04-20T11:21:58.472Z,7.68
2023-04-20T11:24:28.385Z,7.95
2023-04-20T11:26:57.984Z,8.00
2023-04-20T11:29:31.146Z,8.06
2023-04-20T11:32:00.741Z,8.27
2023-04-20T11:34:31.143Z,8.23
2023-04-20T11:37:05.378Z,8.10
2023-04-20T11:39:34.241Z,8.15
2023-04-20T11:42:03.294Z,8.17
2023-04-20T11:44:31.941Z,8.14
2023-04-20T11:47:01.864Z,8.08
2023-04-20T11:49:31.997Z,8.03
2023-04-20T11:52:00.710Z,7.98
2023-04-20T11:54:32.227Z,7.99
2023-04-20T11:57:00.874Z,7.97
2023-04-20T11:59:29.472Z,7.99
2023-04-20T12:01:58.346Z,7.75
2023-04-20T12:04:28.051Z,7.80
2023-04-20T12:06:59.384Z,7.84
2023-04-20T12:09:28.054Z,7.85
2023-04-20T12:11:57.693Z,7.93
2023-04-20T12:14:27.246Z,7.86
2023-04-20T12:16:58.035Z,7.80
2023-04-20T12:19:27.198Z,7.84
2023-04-20T12:21:55.962Z,7.93
2023-04-20T12:24:26.183Z,7.89
2023-04-20T12:26:54.860Z,7.93
2023-04-20T12:29:23.474Z,7.97
2023-04-20T12:31:52.181Z,7.93
2023-04-20T12:34:21.307Z,7.80
2023-04-20T12:36:50.135Z,7.75
2023-04-20T12:39:18.759Z,7.82
2023-04-20T12:41:48.717Z,7.78
2023-04-20T12:44:17.565Z,7.85
2023-04-20T12:46:46.651Z,7.94
2023-04-20T12:49:15.391Z,7.98
2023-04-20T12:51:44.144Z,7.83
2023-04-20T12:54:12.945Z,7.83
2023-04-20T12:56:41.559Z,7.81
2023-04-20T12:59:11.582Z,7.85
2023-04-20T13:01:40.416Z,7.90
2023-04-20T13:04:09.185Z,7.95
2023-04-20T13:06:37.961Z,7.91
2023-04-20T13:09:07.091Z,7.93
2023-04-20T13:11:35.924Z,7.84
2023-04-20T13:14:04.960Z,7.80
2023-04-20T13:16:34.982Z,7.75
2023-04-20T13:19:04.090Z,7.86
2023-04-20T13:21:33.304Z,7.71
2023-04-20T13:24:01.894Z,7.69
2023-04-20T13:26:30.624Z,7.65
2023-04-20T13:28:59.344Z,7.66
2023-04-20T13:31:28.122Z,7.68
2023-04-20T13:33:58.160Z,7.68
2023-04-20T13:36:28.180Z,7.72
2023-04-20T13:38:57.545Z,7.60
2023-04-20T13:41:26.439Z,7.41
2023-04-20T13:43:55.153Z,7.40
2023-04-20T13:46:23.930Z,7.56
2023-04-20T13:48:52.721Z,7.51
2023-04-20T13:51:22.733Z,7.55
2023-04-20T13:53:51.352Z,7.74
2023-04-20T13:56:20.016Z,7.66
2023-04-20T13:58:48.655Z,7.69
2023-04-20T14:01:17.543Z,7.76
2023-04-20T14:03:46.441Z,7.74
2023-04-20T14:06:15.375Z,7.75
2023-04-20T14:08:45.496Z,7.81
2023-04-20T14:11:14.208Z,7.78
2023-04-20T14:13:44.168Z,7.69
2023-04-20T14:16:14.315Z,7.73
2023-04-20T14:18:43.094Z,7.74
2023-04-20T14:21:11.750Z,7.74
2023-04-20T14:23:40.413Z,7.78
2023-04-20T14:26:10.461Z,7.76
2023-04-20T14:28:39.136Z,7.81
2023-04-20T14:31:07.798Z,7.84
2023-04-20T14:33:37.030Z,7.78
2023-04-20T14:36:05.963Z,7.80
2023-04-20T14:38:34.713Z,7.76
2023-04-20T14:41:03.350Z,7.71
2023-04-20T14:43:34.513Z,7.74
2023-04-20T14:46:03.250Z,7.78
2023-04-20T14:48:31.969Z,7.73
2023-04-20T14:51:00.697Z,7.72
2023-04-20T14:53:30.557Z,7.71
2023-04-20T14:56:00.142Z,7.70
2023-04-20T14:58:28.881Z,7.67
2023-04-20T15:00:58.863Z,7.62
2023-04-20T15:03:27.777Z,7.49
2023-04-20T15:05:59.743Z,7.56
2023-04-20T15:08:28.522Z,7.55
2023-04-20T15:10:57.291Z,7.49
2023-04-20T15:13:26.190Z,7.46
2023-04-20T15:15:55.450Z,7.35
2023-04-20T15:18:25.651Z,7.25
2023-04-20T15:20:54.415Z,7.23
2023-04-20T15:23:23.338Z,7.27
2023-04-20T15:25:51.973Z,7.33
2023-04-20T15:28:20.632Z,7.27
2023-04-20T15:30:49.276Z,7.36
2023-04-20T15:33:18.030Z,7.32
2023-04-20T15:35:48.032Z,7.34
2023-04-20T15:38:16.709Z,7.31
2023-04-20T15:40:46.630Z,7.35
2023-04-20T15:43:15.304Z,7.39
2023-04-20T15:45:44.953Z,7.36
2023-04-20T15:48:13.739Z,7.36
2023-04-20T15:50:42.380Z,7.30
2023-04-20T15:53:12.416Z,7.32
2023-04-20T15:55:41.070Z,7.26
2023-04-20T15:58:10.058Z,7.26
2023-04-20T16:00:40.548Z,7.24
2023-04-20T16:03:09.526Z,7.23
2023-04-20T16:05:38.283Z,7.15
2023-04-20T16:08:07.022Z,7.02
2023-04-20T16:10:38.166Z,7.06
2023-04-20T16:13:07.081Z,6.99
2023-04-20T16:15:35.946Z,6.97
2023-04-20T16:18:05.646Z,7.03
2023-04-20T16:20:34.370Z,7.11
2023-04-20T16:23:03.056Z,7.06
2023-04-20T16:25:33.945Z,7.08
2023-04-20T16:28:04.036Z,7.11
2023-04-20T16:30:33.383Z,7.07
2023-04-20T16:33:02.189Z,7.08
2023-04-20T16:35:30.872Z,7.04
2023-04-20T16:37:59.562Z,7.08
2023-04-20T16:40:28.538Z,7.04
2023-04-20T16:42:57.421Z,7.08
2023-04-20T16:45:27.479Z,7.09
2023-04-20T16:47:56.276Z,7.14
2023-04-20T16:50:24.870Z,7.12
2023-04-20T16:52:53.547Z,7.15
2023-04-20T16:55:22.740Z,7.12
2023-04-20T16:57:51.350Z,7.13
2023-04-20T17:00:20.588Z,7.08
2023-04-20T17:02:51.842Z,7.08
2023-04-20T17:05:20.625Z,7.13
2023-04-20T17:07:49.375Z,7.14
2023-04-20T17:10:18.192Z,7.12
2023-04-20T17:12:46.855Z,7.18
2023-04-20T17:15:15.633Z,7.15
2023-04-20T17:17:44.290Z,7.12
2023-04-20T17:20:14.494Z,7.08
2023-04-20T17:22:43.124Z,7.03
2023-04-20T17:25:11.797Z,7.12
2023-04-20T17:27:40.441Z,7.08
2023-04-20T17:30:10.201Z,7.12
2023-04-20T17:32:38.822Z,7.20
2023-04-20T17:35:08.041Z,7.23
2023-04-20T17:37:38.087Z,7.20
2023-04-20T17:40:08.279Z,7.15
2023-04-20T17:42:36.930Z,7.26
2023-04-20T17:45:06.644Z,7.14
2023-04-20T17:47:35.461Z,7.18
2023-04-20T17:50:04.544Z,7.19
2023-04-20T17:52:33.164Z,7.17
2023-04-20T17:55:03.312Z,7.18
2023-04-20T17:57:32.010Z,7.17
2023-04-20T18:00:00.684Z,7.17
2023-04-20T18:02:29.532Z,7.24
2023-04-20T18:04:59.577Z,7.23
2023-04-20T18:07:28.618Z,7.19
2023-04-20T18:09:57.233Z,7.19
2023-04-20T18:12:27.295Z,7.16
2023-04-20T18:14:56.010Z,7.17
2023-04-20T18:17:24.709Z,7.15
2023-04-20T18:19:53.330Z,7.19
2023-04-20T18:22:21.997Z,7.20
2023-04-20T18:24:50.652Z,7.19
2023-04-20T18:27:19.304Z,7.19
2023-04-20T18:29:49.490Z,7.19
2023-04-20T18:32:18.131Z,7.22
2023-04-20T18:34:46.869Z,7.21
2023-04-20T18:37:15.557Z,7.18
2023-04-20T18:39:44.278Z,7.14
2023-04-20T18:42:12.928Z,7.12
2023-04-20T18:44:41.623Z,7.12
2023-04-20T18:47:11.720Z,7.12
2023-04-20T18:49:40.398Z,7.14
2023-04-20T18:52:09.195Z,7.14
2023-04-20T18:54:38.604Z,7.17
2023-04-20T18:57:07.774Z,7.21
2023-04-20T18:59:36.456Z,7.20
2023-04-20T19:02:05.163Z,7.19
2023-04-20T19:04:36.233Z,7.18
2023-04-20T19:07:06.197Z,7.16
2023-04-20T19:09:34.834Z,7.17
2023-04-20T19:12:03.556Z,7.15
2023-04-20T19:14:32.481Z,7.13
2023-04-20T19:17:02.155Z,7.12
2023-04-20T19:19:30.874Z,7.11
2023-04-20T19:22:01.059Z,7.05
2023-04-20T19:24:29.768Z,7.04
2023-04-20T19:26:58.610Z,7.06
2023-04-20T19:29:27.293Z,7.05
2023-04-20T19:31:55.986Z,7.02
2023-04-20T19:34:24.661Z,7.03
2023-04-20T19:36:53.834Z,7.02
2023-04-20T19:39:23.937Z,7.00
2023-04-20T19:41:52.590Z,6.97
2023-04-20T19:44:21.306Z,7.00
2023-04-20T19:46:50.741Z,7.00
2023-04-20T19:49:19.636Z,6.99
2023-04-20T19:51:48.518Z,7.01
2023-04-20T19:54:17.540Z,6.96
2023-04-20T19:56:47.512Z,6.97
2023-04-20T19:59:16.203Z,6.99
2023-04-20T20:01:44.920Z,7.00
2023-04-20T20:04:13.979Z,7.00
2023-04-20T20:06:43.938Z,7.04
2023-04-20T20:09:13.035Z,7.08
2023-04-20T20:11:48.021Z,7.03
2023-04-20T20:14:18.247Z,7.03
2023-04-20T20:16:46.937Z,7.04
2023-04-20T20:19:16.083Z,7.05
2023-04-20T20:21:45.328Z,7.06
2023-04-20T20:24:14.000Z,7.01
2023-04-20T20:26:45.051Z,7.03
2023-04-20T20:29:13.830Z,7.06
2023-04-20T20:31:44.109Z,7.09
2023-04-20T20:34:12.857Z,7.07
2023-04-20T20:36:44.853Z,7.06
2023-04-20T20:39:13.942Z,7.03
2023-04-20T20:41:43.317Z,7.12
2023-04-20T20:44:12.104Z,7.07
2023-04-20T20:46:40.948Z,7.09
2023-04-20T20:49:10.962Z,6.99
2023-04-20T20:51:39.670Z,7.02
2023-04-20T20:54:08.314Z,7.02
2023-04-20T20:56:37.020Z,7.04
2023-04-20T20:59:05.692Z,7.03
2023-04-20T21:01:34.317Z,7.03
2023-04-20T21:04:04.548Z,7.08
2023-04-20T21:06:34.665Z,7.04
2023-04-20T21:09:04.255Z,7.04
2023-04-20T21:11:32.957Z,7.07
2023-04-20T21:14:02.984Z,7.09
2023-04-20T21:16:31.648Z,7.09
2023-04-20T21:19:00.333Z,7.06
2023-04-20T21:21:29.016Z,7.04
2023-04-20T21:23:59.042Z,7.03
2023-04-20T21:26:28.372Z,7.03
2023-04-20T21:28:56.981Z,7.04
2023-04-20T21:31:25.696Z,7.06
2023-04-20T21:33:54.301Z,7.05
2023-04-20T21:36:22.906Z,7.05
2023-04-20T21:38:51.515Z,7.01
2023-04-20T21:41:21.636Z,7.05
2023-04-20T21:43:52.659Z,7.08
2023-04-20T21:46:21.310Z,7.05
2023-04-20T21:48:51.447Z,7.01
2023-04-20T21:51:20.162Z,7.03
2023-04-20T21:53:48.787Z,7.00
2023-04-20T21:56:18.344Z,7.00
2023-04-20T21:58:48.279Z,7.00
2023-04-20T22:01:16.940Z,6.96
2023-04-20T22:03:45.742Z,7.01
2023-04-20T22:06:14.438Z,6.96
2023-04-20T22:08:43.095Z,6.99
2023-04-20T22:11:11.824Z,7.00
2023-04-20T22:13:40.536Z,6.98
2023-04-20T22:16:10.549Z,6.94
2023-04-20T22:18:39.197Z,6.86
2023-04-20T22:21:07.822Z,6.83
2023-04-20T22:23:36.679Z,6.89
2023-04-20T22:26:05.850Z,6.86
2023-04-20T22:28:34.457Z,6.85
2023-04-20T22:31:03.459Z,6.84
2023-04-20T22:33:33.463Z,6.79
2023-04-20T22:36:03.264Z,6.90
2023-04-20T22:38:32.393Z,6.91
2023-04-20T22:41:01.216Z,6.79
2023-04-20T22:43:29.797Z,6.72
2023-04-20T22:45:58.525Z,6.78
2023-04-20T22:48:27.470Z,6.76
2023-04-20T22:51:00.598Z,6.77
2023-04-20T22:53:29.773Z,6.72
2023-04-20T22:56:04.354Z,6.71
2023-04-20T22:58:32.974Z,6.65
2023-04-20T23:01:01.742Z,6.58
2023-04-20T23:03:31.088Z,6.64
2023-04-20T23:06:01.321Z,6.63
2023-04-20T23:08:30.075Z,6.57
2023-04-20T23:10:58.945Z,6.57
2023-04-20T23:13:27.648Z,6.48
2023-04-20T23:15:56.489Z,6.52
2023-04-20T23:18:25.275Z,6.54
2023-04-20T23:20:53.914Z,6.53
2023-04-20T23:23:23.850Z,6.57
2023-04-20T23:25:52.512Z,6.52
2023-04-20T23:28:21.158Z,6.45
2023-04-20T23:30:50.007Z,6.40
2023-04-20T23:33:18.816Z,6.41
2023-04-20T23:35:47.432Z,6.35
2023-04-20T23:38:16.088Z,6.33
2023-04-20T23:40:46.080Z,6.27
2023-04-20T23:43:14.708Z,6.24
2023-04-20T23:45:43.377Z,6.26
2023-04-20T23:48:12.097Z,6.31
2023-04-20T23:50:40.805Z,6.17
2023-04-20T23:53:10.176Z,6.14
2023-04-20T23:55:38.745Z,6.07
2023-04-20T23:58:08.652Z,6.11
